Aviation Digital Data Service (ADDS)

Output produced by METARs form (0355 UTC 22 August 2014)
found at http://aviationweather.gov/adds/metars/
 
KPQI 212352Z 2200/2224 03005KT P6SM BKN050 
     FM220900 10004KT P6SM BKN025 
     FM221600 07005KT P6SM BKN035 AMD LTD TO CLD VIS AND WIND